Melcroft, Pennsylvania
Current Conditions -  °F | °C
As of 8:45 AM on Friday 19 Dec 2014 (Local Time) from KLBE Reporting Station
Freezing Drizzle Freezing Drizzle  
Wind Chill: 18°   Ceiling: 900
Heat Index: 27°   Visibility: 3mi
Dew Point: 27°   Wind: 8mph
Humidity: 100%   Direction: 230°SW
Pressure: 30.21"   Gusts: NA
Location:  40.05°N, 79.39°W
Report Text: KLBE 191345Z 23007KT 3SM -FZDZ OVC009 M03/M03 A3021
Loading
Personal Weather Stations






























Interactive Weather Map New forecast layout! Learn more

10-Day Weather Forecast

Advertisements
Track Severe Weather on mobile